sensor_id;sensor_type;location;lat;lon;timestamp;pressure;altitude;pressure_sealevel;temperature;humidity
24610;BME280;12758;47.890;11.694;2023-05-03T00:01:07;94480.38;;;10.76;100.00
24610;BME280;12758;47.890;11.694;2023-05-03T00:03:33;94483.56;;;10.78;100.00
24610;BME280;12758;47.890;11.694;2023-05-03T00:06:08;94472.06;;;10.81;100.00
24610;BME280;12758;47.890;11.694;2023-05-03T00:08:34;94477.50;;;10.81;100.00
24610;BME280;12758;47.890;11.694;2023-05-03T00:11:00;94472.69;;;10.78;100.00
24610;BME280;12758;47.890;11.694;2023-05-03T00:13:27;94471.59;;;10.79;100.00
24610;BME280;12758;47.890;11.694;2023-05-03T00:15:53;94471.44;;;10.84;100.00
24610;BME280;12758;47.890;11.694;2023-05-03T00:18:19;94464.41;;;10.83;100.00
24610;BME280;12758;47.890;11.694;2023-05-03T00:20:45;94469.97;;;10.78;100.00
24610;BME280;12758;47.890;11.694;2023-05-03T00:23:11;94459.28;;;10.72;100.00
24610;BME280;12758;47.890;11.694;2023-05-03T00:25:38;94467.72;;;10.71;100.00
24610;BME280;12758;47.890;11.694;2023-05-03T00:28:04;94460.53;;;10.66;100.00
24610;BME280;12758;47.890;11.694;2023-05-03T00:30:30;94453.63;;;10.60;100.00
24610;BME280;12758;47.890;11.694;2023-05-03T00:32:56;94461.28;;;10.58;100.00
24610;BME280;12758;47.890;11.694;2023-05-03T00:35:22;94461.78;;;10.60;100.00
24610;BME280;12758;47.890;11.694;2023-05-03T00:37:48;94462.91;;;10.68;100.00
24610;BME280;12758;47.890;11.694;2023-05-03T00:40:14;94462.69;;;10.47;100.00
24610;BME280;12758;47.890;11.694;2023-05-03T00:42:43;94462.41;;;10.57;100.00
24610;BME280;12758;47.890;11.694;2023-05-03T00:45:09;94464.94;;;10.62;100.00
24610;BME280;12758;47.890;11.694;2023-05-03T00:47:36;94461.16;;;10.63;100.00
24610;BME280;12758;47.890;11.694;2023-05-03T00:50:02;94472.00;;;10.63;100.00
24610;BME280;12758;47.890;11.694;2023-05-03T00:52:29;94462.41;;;10.57;100.00
24610;BME280;12758;47.890;11.694;2023-05-03T00:54:55;94456.00;;;10.53;100.00
24610;BME280;12758;47.890;11.694;2023-05-03T00:57:22;94462.06;;;10.50;100.00
24610;BME280;12758;47.890;11.694;2023-05-03T00:59:48;94457.25;;;10.47;100.00
24610;BME280;12758;47.890;11.694;2023-05-03T01:02:14;94461.69;;;10.43;100.00
24610;BME280;12758;47.890;11.694;2023-05-03T01:04:41;94468.56;;;10.40;100.00
24610;BME280;12758;47.890;11.694;2023-05-03T01:07:11;94470.94;;;10.42;100.00
24610;BME280;12758;47.890;11.694;2023-05-03T01:09:44;94471.25;;;10.40;100.00
24610;BME280;12758;47.890;11.694;2023-05-03T01:12:19;94465.00;;;10.40;100.00
24610;BME280;12758;47.890;11.694;2023-05-03T01:14:56;94466.75;;;10.36;100.00
24610;BME280;12758;47.890;11.694;2023-05-03T01:17:26;94466.47;;;10.46;100.00
24610;BME280;12758;47.890;11.694;2023-05-03T01:19:55;94467.59;;;10.45;100.00
24610;BME280;12758;47.890;11.694;2023-05-03T01:22:26;94472.81;;;10.33;100.00
24610;BME280;12758;47.890;11.694;2023-05-03T01:25:00;94457.50;;;10.37;100.00
24610;BME280;12758;47.890;11.694;2023-05-03T01:27:30;94460.47;;;10.26;100.00
24610;BME280;12758;47.890;11.694;2023-05-03T01:29:56;94457.94;;;10.30;100.00
24610;BME280;12758;47.890;11.694;2023-05-03T01:32:25;94456.34;;;10.29;100.00
24610;BME280;12758;47.890;11.694;2023-05-03T01:34:56;94460.97;;;10.29;100.00
24610;BME280;12758;47.890;11.694;2023-05-03T01:37:25;94456.75;;;10.22;100.00
24610;BME280;12758;47.890;11.694;2023-05-03T01:39:53;94447.16;;;10.16;100.00
24610;BME280;12758;47.890;11.694;2023-05-03T01:42:21;94446.19;;;10.12;100.00
24610;BME280;12758;47.890;11.694;2023-05-03T01:44:48;94448.38;;;10.10;100.00
24610;BME280;12758;47.890;11.694;2023-05-03T01:47:14;94446.00;;;10.09;100.00
24610;BME280;12758;47.890;11.694;2023-05-03T01:49:40;94450.00;;;10.11;100.00
24610;BME280;12758;47.890;11.694;2023-05-03T01:52:06;94455.44;;;10.11;100.00
24610;BME280;12758;47.890;11.694;2023-05-03T01:54:32;94449.00;;;10.07;100.00
24610;BME280;12758;47.890;11.694;2023-05-03T01:56:58;94452.84;;;10.06;100.00
24610;BME280;12758;47.890;11.694;2023-05-03T01:59:26;94455.03;;;10.04;100.00
24610;BME280;12758;47.890;11.694;2023-05-03T02:01:52;94455.03;;;10.04;100.00
24610;BME280;12758;47.890;11.694;2023-05-03T02:04:18;94460.47;;;10.04;100.00
24610;BME280;12758;47.890;11.694;2023-05-03T02:06:44;94451.25;;;10.05;100.00
24610;BME280;12758;47.890;11.694;2023-05-03T02:09:11;94462.88;;;10.06;100.00
24610;BME280;12758;47.890;11.694;2023-05-03T02:11:37;94464.31;;;10.03;100.00
24610;BME280;12758;47.890;11.694;2023-05-03T02:14:03;94466.50;;;10.01;100.00
24610;BME280;12758;47.890;11.694;2023-05-03T02:16:29;94468.94;;;10.02;100.00
24610;BME280;12758;47.890;11.694;2023-05-03T02:18:55;94467.53;;;10.05;100.00
24610;BME280;12758;47.890;11.694;2023-05-03T02:21:23;94460.66;;;10.08;100.00
24610;BME280;12758;47.890;11.694;2023-05-03T02:23:49;94467.81;;;10.03;100.00
24610;BME280;12758;47.890;11.694;2023-05-03T02:26:16;94458.88;;;10.03;100.00
24610;BME280;12758;47.890;11.694;2023-05-03T02:28:42;94468.75;;;9.99;100.00
24610;BME280;12758;47.890;11.694;2023-05-03T02:31:08;94468.13;;;10.02;100.00
24610;BME280;12758;47.890;11.694;2023-05-03T02:33:34;94465.41;;;10.02;100.00
24610;BME280;12758;47.890;11.694;2023-05-03T02:36:00;94467.31;;;10.01;100.00
24610;BME280;12758;47.890;11.694;2023-05-03T02:38:26;94462.72;;;10.02;100.00
24610;BME280;12758;47.890;11.694;2023-05-03T02:40:52;94470.34;;;10.00;100.00
24610;BME280;12758;47.890;11.694;2023-05-03T02:43:18;94463.94;;;9.96;100.00
24610;BME280;12758;47.890;11.694;2023-05-03T02:45:44;94461.59;;;10.03;100.00
24610;BME280;12758;47.890;11.694;2023-05-03T02:48:10;94471.31;;;10.04;100.00
24610;BME280;12758;47.890;11.694;2023-05-03T02:50:38;94464.31;;;10.03;100.00
24610;BME280;12758;47.890;11.694;2023-05-03T02:53:04;94465.91;;;10.04;100.00
24610;BME280;12758;47.890;11.694;2023-05-03T02:55:30;94465.91;;;10.04;100.00
24610;BME280;12758;47.890;11.694;2023-05-03T02:57:56;94461.09;;;10.01;100.00
24610;BME280;12758;47.890;11.694;2023-05-03T03:00:22;94468.13;;;10.02;100.00
24610;BME280;12758;47.890;11.694;2023-05-03T03:02:48;94466.50;;;10.01;100.00
24610;BME280;12758;47.890;11.694;2023-05-03T03:05:15;94457.91;;;9.99;100.00
24610;BME280;12758;47.890;11.694;2023-05-03T03:07:42;94462.09;;;10.05;100.00
24610;BME280;12758;47.890;11.694;2023-05-03T03:10:09;94469.91;;;10.07;100.00
24610;BME280;12758;47.890;11.694;2023-05-03T03:12:35;94468.13;;;10.02;100.00
24610;BME280;12758;47.890;11.694;2023-05-03T03:15:01;94467.13;;;9.98;100.00
24610;BME280;12758;47.890;11.694;2023-05-03T03:17:28;94467.94;;;9.98;100.00
24610;BME280;12758;47.890;11.694;2023-05-03T03:19:54;94460.13;;;9.97;100.00
24610;BME280;12758;47.890;11.694;2023-05-03T03:22:20;94462.94;;;9.92;100.00
24610;BME280;12758;47.890;11.694;2023-05-03T03:24:47;94460.13;;;9.97;100.00
24610;BME280;12758;47.890;11.694;2023-05-03T03:27:13;94456.28;;;9.98;100.00
24610;BME280;12758;47.890;11.694;2023-05-03T03:29:39;94459.50;;;10.00;100.00
24610;BME280;12758;47.890;11.694;2023-05-03T03:32:05;94463.31;;;9.99;100.00
24610;BME280;12758;47.890;11.694;2023-05-03T03:34:31;94463.94;;;9.96;100.00
24610;BME280;12758;47.890;11.694;2023-05-03T03:36:57;94462.94;;;9.92;100.00
24610;BME280;12758;47.890;11.694;2023-05-03T03:39:23;94462.56;;;9.85;100.00
24610;BME280;12758;47.890;11.694;2023-05-03T03:41:50;94465.00;;;9.86;100.00
24610;BME280;12758;47.890;11.694;2023-05-03T03:44:16;94469.00;;;9.89;100.00
24610;BME280;12758;47.890;11.694;2023-05-03T03:46:42;94463.59;;;9.89;100.00
24610;BME280;12758;47.890;11.694;2023-05-03T03:49:08;94466.28;;;9.89;100.00
24610;BME280;12758;47.890;11.694;2023-05-03T03:51:34;94458.16;;;9.89;100.00
24610;BME280;12758;47.890;11.694;2023-05-03T03:54:00;94468.50;;;9.87;100.00
24610;BME280;12758;47.890;11.694;2023-05-03T03:56:26;94463.88;;;9.87;100.00
24610;BME280;12758;47.890;11.694;2023-05-03T03:58:53;94467.25;;;9.70;100.00
24610;BME280;12758;47.890;11.694;2023-05-03T04:01:19;94465.53;;;9.74;100.00
24610;BME280;12758;47.890;11.694;2023-05-03T04:03:45;94466.03;;;9.76;100.00
24610;BME280;12758;47.890;11.694;2023-05-03T04:06:11;94463.94;;;9.73;100.00
24610;BME280;12758;47.890;11.694;2023-05-03T04:08:37;94461.22;;;9.73;100.00
24610;BME280;12758;47.890;11.694;2023-05-03T04:11:08;94467.63;;;9.77;100.00
24610;BME280;12758;47.890;11.694;2023-05-03T04:13:34;94471.28;;;9.73;100.00
24610;BME280;12758;47.890;11.694;2023-05-03T04:16:01;94470.88;;;9.66;100.00
24610;BME280;12758;47.890;11.694;2023-05-03T04:18:27;94469.97;;;9.70;100.00
24610;BME280;12758;47.890;11.694;2023-05-03T04:20:53;94469.47;;;9.68;100.00
24610;BME280;12758;47.890;11.694;2023-05-03T04:23:19;94469.66;;;9.72;100.00
24610;BME280;12758;47.890;11.694;2023-05-03T04:25:46;94473.13;;;9.64;100.00
24610;BME280;12758;47.890;11.694;2023-05-03T04:28:13;94477.94;;;9.67;100.00
24610;BME280;12758;47.890;11.694;2023-05-03T04:30:39;94476.13;;;9.62;100.00
24610;BME280;12758;47.890;11.694;2023-05-03T04:33:07;94480.97;;;9.51;100.00
24610;BME280;12758;47.890;11.694;2023-05-03T04:35:33;94476.97;;;9.49;100.00
24610;BME280;12758;47.890;11.694;2023-05-03T04:38:01;94479.16;;;9.47;100.00
24610;BME280;12758;47.890;11.694;2023-05-03T04:40:28;94491.25;;;9.41;100.00
24610;BME280;12758;47.890;11.694;2023-05-03T04:42:54;94480.50;;;9.36;100.00
24610;BME280;12758;47.890;11.694;2023-05-03T04:45:20;94484.69;;;8.64;100.00
24610;BME280;12758;47.890;11.694;2023-05-03T04:47:46;94483.22;;;7.92;100.00
24610;BME280;12758;47.890;11.694;2023-05-03T04:50:13;94482.94;;;7.94;100.00
24610;BME280;12758;47.890;11.694;2023-05-03T04:52:39;94492.22;;;8.21;100.00
24610;BME280;12758;47.890;11.694;2023-05-03T04:55:05;94488.75;;;8.01;100.00
24610;BME280;12758;47.890;11.694;2023-05-03T04:57:32;94488.31;;;7.42;100.00
24610;BME280;12758;47.890;11.694;2023-05-03T04:59:58;94490.66;;;7.30;100.00
24610;BME280;12758;47.890;11.694;2023-05-03T05:02:24;94488.00;;;7.63;100.00
24610;BME280;12758;47.890;11.694;2023-05-03T05:04:52;94494.72;;;7.84;100.00
24610;BME280;12758;47.890;11.694;2023-05-03T05:07:18;94493.38;;;8.01;100.00
24610;BME280;12758;47.890;11.694;2023-05-03T05:09:45;94492.06;;;7.79;100.00
24610;BME280;12758;47.890;11.694;2023-05-03T05:12:11;94496.84;;;7.50;100.00
24610;BME280;12758;47.890;11.694;2023-05-03T05:14:37;94494.22;;;7.44;100.00
24610;BME280;12758;47.890;11.694;2023-05-03T05:17:03;94489.63;;;7.26;100.00
24610;BME280;12758;47.890;11.694;2023-05-03T05:19:29;94488.00;;;7.25;100.00
24610;BME280;12758;47.890;11.694;2023-05-03T05:21:55;94492.84;;;7.28;100.00
24610;BME280;12758;47.890;11.694;2023-05-03T05:24:21;94499.41;;;7.41;100.00
24610;BME280;12758;47.890;11.694;2023-05-03T05:26:48;94496.63;;;7.27;100.00
24610;BME280;12758;47.890;11.694;2023-05-03T05:29:14;94495.75;;;7.13;100.00
24610;BME280;12758;47.890;11.694;2023-05-03T05:31:40;94501.81;;;7.23;100.00
24610;BME280;12758;47.890;11.694;2023-05-03T05:34:06;94504.16;;;7.49;100.00
24610;BME280;12758;47.890;11.694;2023-05-03T05:36:32;94504.28;;;7.77;100.00
24610;BME280;12758;47.890;11.694;2023-05-03T05:38:58;94509.31;;;7.83;100.00
24610;BME280;12758;47.890;11.694;2023-05-03T05:41:24;94504.56;;;7.94;100.00
24610;BME280;12758;47.890;11.694;2023-05-03T05:43:50;94502.78;;;8.03;100.00
24610;BME280;12758;47.890;11.694;2023-05-03T05:46:17;94505.28;;;8.00;100.00
24610;BME280;12758;47.890;11.694;2023-05-03T05:48:45;94507.81;;;8.10;100.00
24610;BME280;12758;47.890;11.694;2023-05-03T05:51:11;94505.00;;;8.15;100.00
24610;BME280;12758;47.890;11.694;2023-05-03T05:53:37;94509.22;;;8.21;100.00
24610;BME280;12758;47.890;11.694;2023-05-03T05:56:03;94504.78;;;8.11;100.00
24610;BME280;12758;47.890;11.694;2023-05-03T05:58:31;94510.91;;;8.03;100.00
24610;BME280;12758;47.890;11.694;2023-05-03T06:00:58;94509.16;;;7.93;100.00
24610;BME280;12758;47.890;11.694;2023-05-03T06:03:25;94511.09;;;8.07;100.00
24610;BME280;12758;47.890;11.694;2023-05-03T06:05:51;94511.53;;;8.14;100.00
24610;BME280;12758;47.890;11.694;2023-05-03T06:08:17;94514.63;;;8.21;100.00
24610;BME280;12758;47.890;11.694;2023-05-03T06:10:43;94509.50;;;8.38;100.00
24610;BME280;12758;47.890;11.694;2023-05-03T06:13:09;94514.94;;;8.38;100.00
24610;BME280;12758;47.890;11.694;2023-05-03T06:15:36;94521.34;;;8.43;100.00
24610;BME280;12758;47.890;11.694;2023-05-03T06:18:02;94514.94;;;8.38;100.00
24610;BME280;12758;47.890;11.694;2023-05-03T06:20:29;94521.34;;;8.43;100.00
24610;BME280;12758;47.890;11.694;2023-05-03T06:22:55;94519.34;;;8.62;100.00
24610;BME280;12758;47.890;11.694;2023-05-03T06:25:21;94520.28;;;8.71;100.00
24610;BME280;12758;47.890;11.694;2023-05-03T06:27:47;94516.19;;;8.74;100.00
24610;BME280;12758;47.890;11.694;2023-05-03T06:30:14;94520.88;;;8.68;100.00
24610;BME280;12758;47.890;11.694;2023-05-03T06:32:41;94527.19;;;8.77;100.00
24610;BME280;12758;47.890;11.694;2023-05-03T06:35:08;94519.56;;;8.79;100.00
24610;BME280;12758;47.890;11.694;2023-05-03T06:37:34;94523.78;;;8.85;100.00
24610;BME280;12758;47.890;11.694;2023-05-03T06:40:01;94522.38;;;8.88;100.00
24610;BME280;12758;47.890;11.694;2023-05-03T06:42:27;94529.03;;;8.96;100.00
24610;BME280;12758;47.890;11.694;2023-05-03T06:44:53;94530.41;;;9.07;100.00
24610;BME280;12758;47.890;11.694;2023-05-03T06:47:19;94529.41;;;9.17;100.00
24610;BME280;12758;47.890;11.694;2023-05-03T06:49:46;94524.50;;;9.19;100.00
24610;BME280;12758;47.890;11.694;2023-05-03T06:52:12;94519.75;;;9.24;100.00
24610;BME280;12758;47.890;11.694;2023-05-03T06:54:38;94536.41;;;9.31;100.00
24610;BME280;12758;47.890;11.694;2023-05-03T06:57:05;94528.78;;;9.33;100.00
24610;BME280;12758;47.890;11.694;2023-05-03T06:59:32;94528.59;;;9.16;100.00
24610;BME280;12758;47.890;11.694;2023-05-03T07:01:58;94529.00;;;9.23;100.00
24610;BME280;12758;47.890;11.694;2023-05-03T07:04:24;94531.47;;;9.33;100.00
24610;BME280;12758;47.890;11.694;2023-05-03T07:06:50;94521.16;;;9.36;100.00
24610;BME280;12758;47.890;11.694;2023-05-03T07:09:16;94521.44;;;9.34;100.00
24610;BME280;12758;47.890;11.694;2023-05-03T07:11:43;94517.31;;;9.50;100.00
24610;BME280;12758;47.890;11.694;2023-05-03T07:14:14;94522.69;;;9.64;100.00
24610;BME280;12758;47.890;11.694;2023-05-03T07:16:40;94522.22;;;9.85;100.00
24610;BME280;12758;47.890;11.694;2023-05-03T07:19:06;94509.53;;;9.94;100.00
24610;BME280;12758;47.890;11.694;2023-05-03T07:21:32;94520.00;;;9.87;100.00
24610;BME280;12758;47.890;11.694;2023-05-03T07:23:59;94518.78;;;9.93;100.00
24610;BME280;12758;47.890;11.694;2023-05-03T07:26:25;94515.72;;;10.08;100.00
24610;BME280;12758;47.890;11.694;2023-05-03T07:28:51;94513.41;;;10.24;100.00
24610;BME280;12758;47.890;11.694;2023-05-03T07:31:17;94508.94;;;10.42;100.00
24610;BME280;12758;47.890;11.694;2023-05-03T07:33:43;94508.75;;;10.38;100.00
24610;BME280;12758;47.890;11.694;2023-05-03T07:36:10;94513.47;;;10.55;100.00
24610;BME280;12758;47.890;11.694;2023-05-03T07:38:36;94511.94;;;10.71;100.00
24610;BME280;12758;47.890;11.694;2023-05-03T07:41:03;94514.22;;;10.78;100.00
24610;BME280;12758;47.890;11.694;2023-05-03T07:43:29;94511.41;;;10.92;100.00
24610;BME280;12758;47.890;11.694;2023-05-03T07:45:55;94520.03;;;10.94;100.00
24610;BME280;12758;47.890;11.694;2023-05-03T07:48:21;94520.88;;;11.03;100.00
24610;BME280;12758;47.890;11.694;2023-05-03T07:50:47;94519.41;;;10.97;100.00
24610;BME280;12758;47.890;11.694;2023-05-03T07:53:13;94519.88;;;10.90;100.00
24610;BME280;12758;47.890;11.694;2023-05-03T07:55:39;94521.66;;;10.95;100.00
24610;BME280;12758;47.890;11.694;2023-05-03T07:58:06;94518.69;;;11.14;100.00
24610;BME280;12758;47.890;11.694;2023-05-03T08:00:33;94517.09;;;11.22;100.00
24610;BME280;12758;47.890;11.694;2023-05-03T08:02:59;94517.59;;;11.24;100.00
24610;BME280;12758;47.890;11.694;2023-05-03T08:05:27;94519.03;;;11.21;100.00
24610;BME280;12758;47.890;11.694;2023-05-03T08:07:54;94510.75;;;11.35;100.00
24610;BME280;12758;47.890;11.694;2023-05-03T08:10:20;94513.16;;;11.36;100.00
24610;BME280;12758;47.890;11.694;2023-05-03T08:12:46;94510.59;;;11.40;100.00
24610;BME280;12758;47.890;11.694;2023-05-03T08:15:13;94513.66;;;11.47;100.00
24610;BME280;12758;47.890;11.694;2023-05-03T08:17:40;94502.59;;;11.52;100.00
24610;BME280;12758;47.890;11.694;2023-05-03T08:20:07;94501.97;;;11.47;100.00
24610;BME280;12758;47.890;11.694;2023-05-03T08:22:33;94504.19;;;11.36;100.00
24610;BME280;12758;47.890;11.694;2023-05-03T08:25:02;94516.34;;;11.38;100.00
24610;BME280;12758;47.890;11.694;2023-05-03T08:27:29;94509.63;;;11.36;100.00
24610;BME280;12758;47.890;11.694;2023-05-03T08:29:55;94509.63;;;11.36;100.00
24610;BME280;12758;47.890;11.694;2023-05-03T08:32:21;94517.31;;;11.34;100.00
24610;BME280;12758;47.890;11.694;2023-05-03T08:34:49;94511.50;;;11.27;100.00
24610;BME280;12758;47.890;11.694;2023-05-03T08:37:15;94517.31;;;11.51;100.00
24610;BME280;12758;47.890;11.694;2023-05-03T08:39:41;94517.19;;;11.56;100.00
24610;BME280;12758;47.890;11.694;2023-05-03T08:42:08;94517.63;;;11.41;100.00
24610;BME280;12758;47.890;11.694;2023-05-03T08:44:35;94516.03;;;11.40;100.00
24610;BME280;12758;47.890;11.694;2023-05-03T08:47:02;94509.63;;;11.36;100.00
24610;BME280;12758;47.890;11.694;2023-05-03T08:49:29;94513.31;;;11.40;100.00
24610;BME280;12758;47.890;11.694;2023-05-03T08:51:55;94512.19;;;11.41;100.00
24610;BME280;12758;47.890;11.694;2023-05-03T08:54:22;94515.91;;;11.54;100.00
24610;BME280;12758;47.890;11.694;2023-05-03T08:56:48;94511.72;;;11.48;100.00
24610;BME280;12758;47.890;11.694;2023-05-03T08:59:15;94513.94;;;11.46;100.00
24610;BME280;12758;47.890;11.694;2023-05-03T09:01:42;94515.41;;;11.52;100.00
24610;BME280;12758;47.890;11.694;2023-05-03T09:04:08;94515.41;;;11.52;100.00
24610;BME280;12758;47.890;11.694;2023-05-03T09:06:36;94513.03;;;11.59;100.00
24610;BME280;12758;47.890;11.694;2023-05-03T09:09:03;94510.16;;;11.64;100.00
24610;BME280;12758;47.890;11.694;2023-05-03T09:11:32;94510.63;;;11.57;100.00
24610;BME280;12758;47.890;11.694;2023-05-03T09:14:07;94508.84;;;11.61;100.00
24610;BME280;12758;47.890;11.694;2023-05-03T09:16:33;94506.50;;;11.69;100.00
24610;BME280;12758;47.890;11.694;2023-05-03T09:19:01;94504.94;;;11.85;100.00
24610;BME280;12758;47.890;11.694;2023-05-03T09:21:27;94514.69;;;11.95;100.00
24610;BME280;12758;47.890;11.694;2023-05-03T09:23:55;94502.19;;;11.94;100.00
24610;BME280;12758;47.890;11.694;2023-05-03T09:26:29;94513.53;;;12.13;100.00
24610;BME280;12758;47.890;11.694;2023-05-03T09:28:57;94504.88;;;12.20;100.00
24610;BME280;12758;47.890;11.694;2023-05-03T09:31:23;94514.22;;;12.01;100.00
24610;BME280;12758;47.890;11.694;2023-05-03T09:33:49;94503.78;;;12.03;100.00
24610;BME280;12758;47.890;11.694;2023-05-03T09:36:15;94506.34;;;12.00;100.00
24610;BME280;12758;47.890;11.694;2023-05-03T09:38:42;94509.41;;;11.98;100.00
24610;BME280;12758;47.890;11.694;2023-05-03T09:41:08;94496.59;;;12.07;100.00
24610;BME280;12758;47.890;11.694;2023-05-03T09:43:35;94499.13;;;12.30;100.00
24610;BME280;12758;47.890;11.694;2023-05-03T09:46:12;94493.34;;;12.23;100.00
24610;BME280;12758;47.890;11.694;2023-05-03T09:48:39;94502.66;;;12.22;100.00
24610;BME280;12758;47.890;11.694;2023-05-03T09:51:05;94504.38;;;12.35;100.00
24610;BME280;12758;47.890;11.694;2023-05-03T09:53:32;94493.03;;;12.33;100.00
24610;BME280;12758;47.890;11.694;2023-05-03T09:55:59;94502.81;;;12.34;100.00
24610;BME280;12758;47.890;11.694;2023-05-03T09:58:27;94488.06;;;12.35;100.00
24610;BME280;12758;47.890;11.694;2023-05-03T10:00:55;94490.78;;;12.35;100.00
24610;BME280;12758;47.890;11.694;2023-05-03T10:03:25;94489.84;;;12.31;100.00
24610;BME280;12758;47.890;11.694;2023-05-03T10:05:53;94486.47;;;12.34;100.00
24610;BME280;12758;47.890;11.694;2023-05-03T10:08:27;94488.53;;;12.37;100.00
24610;BME280;12758;47.890;11.694;2023-05-03T10:10:57;94482.09;;;12.50;100.00
24610;BME280;12758;47.890;11.694;2023-05-03T10:13:24;94483.88;;;12.46;100.00
24610;BME280;12758;47.890;11.694;2023-05-03T10:15:54;94486.75;;;12.41;100.00
24610;BME280;12758;47.890;11.694;2023-05-03T10:18:22;94490.31;;;12.33;100.00
24610;BME280;12758;47.890;11.694;2023-05-03T10:20:53;94483.53;;;12.48;100.00
24610;BME280;12758;47.890;11.694;2023-05-03T10:23:22;94484.66;;;12.55;100.00
24610;BME280;12758;47.890;11.694;2023-05-03T10:26:12;94478.03;;;12.74;100.00
24610;BME280;12758;47.890;11.694;2023-05-03T10:28:38;94481.34;;;12.88;100.00
24610;BME280;12758;47.890;11.694;2023-05-03T10:31:09;94474.00;;;12.80;100.00
24610;BME280;12758;47.890;11.694;2023-05-03T10:33:55;94476.03;;;12.92;100.00
24610;BME280;12758;47.890;11.694;2023-05-03T10:36:21;94477.09;;;12.99;100.00
24610;BME280;12758;47.890;11.694;2023-05-03T10:38:47;94473.28;;;13.00;100.00
24610;BME280;12758;47.890;11.694;2023-05-03T10:41:23;94471.53;;;12.96;100.00
24610;BME280;12758;47.890;11.694;2023-05-03T10:43:49;94465.94;;;12.92;100.00
24610;BME280;12758;47.890;11.694;2023-05-03T10:46:32;94471.97;;;13.07;100.00
24610;BME280;12758;47.890;11.694;2023-05-03T10:49:17;94470.63;;;13.13;100.00
24610;BME280;12758;47.890;11.694;2023-05-03T10:51:44;94460.69;;;13.17;100.00
24610;BME280;12758;47.890;11.694;2023-05-03T10:54:10;94464.91;;;13.35;100.00
24610;BME280;12758;47.890;11.694;2023-05-03T10:56:46;94458.91;;;13.50;100.00
24610;BME280;12758;47.890;11.694;2023-05-03T10:59:12;94470.72;;;13.55;100.00
24610;BME280;12758;47.890;11.694;2023-05-03T11:01:39;94462.91;;;13.23;100.00
24610;BME280;12758;47.890;11.694;2023-05-03T11:04:08;94462.66;;;13.37;100.00
24610;BME280;12758;47.890;11.694;2023-05-03T11:06:36;94461.75;;;13.33;100.00
24610;BME280;12758;47.890;11.694;2023-05-03T11:09:04;94462.94;;;13.44;100.00
24610;BME280;12758;47.890;11.694;2023-05-03T11:11:31;94471.13;;;13.44;100.00
24610;BME280;12758;47.890;11.694;2023-05-03T11:13:57;94468.13;;;13.37;100.00
24610;BME280;12758;47.890;11.694;2023-05-03T11:16:23;94460.50;;;13.51;100.00
24610;BME280;12758;47.890;11.694;2023-05-03T11:18:50;94458.91;;;13.50;100.00
24610;BME280;12758;47.890;11.694;2023-05-03T11:21:16;94462.63;;;13.46;100.00
24610;BME280;12758;47.890;11.694;2023-05-03T11:23:43;94467.47;;;13.40;100.00
24610;BME280;12758;47.890;11.694;2023-05-03T11:26:09;94457.09;;;13.55;100.00
24610;BME280;12758;47.890;11.694;2023-05-03T11:28:36;94452.13;;;13.57;100.00
24610;BME280;12758;47.890;11.694;2023-05-03T11:31:03;94450.13;;;13.66;100.00
24610;BME280;12758;47.890;11.694;2023-05-03T11:33:31;94449.59;;;13.72;100.00
24610;BME280;12758;47.890;11.694;2023-05-03T11:36:00;94450.50;;;13.77;100.00
24610;BME280;12758;47.890;11.694;2023-05-03T11:38:29;94447.47;;;13.78;100.00
24610;BME280;12758;47.890;11.694;2023-05-03T11:40:55;94452.00;;;13.74;100.00
24610;BME280;12758;47.890;11.694;2023-05-03T11:43:21;94448.78;;;13.72;100.00
24610;BME280;12758;47.890;11.694;2023-05-03T11:45:47;94453.84;;;13.82;100.00
24610;BME280;12758;47.890;11.694;2023-05-03T11:48:16;94452.50;;;13.88;100.00
24610;BME280;12758;47.890;11.694;2023-05-03T11:50:43;94447.06;;;13.88;100.00
24610;BME280;12758;47.890;11.694;2023-05-03T11:53:11;94447.38;;;14.08;100.00
24610;BME280;12758;47.890;11.694;2023-05-03T11:55:38;94442.31;;;13.97;100.00
24610;BME280;12758;47.890;11.694;2023-05-03T11:58:07;94439.84;;;14.05;100.00
24610;BME280;12758;47.890;11.694;2023-05-03T12:00:35;94445.31;;;14.05;100.00
24610;BME280;12758;47.890;11.694;2023-05-03T12:03:01;94452.34;;;14.06;100.00
24610;BME280;12758;47.890;11.694;2023-05-03T12:05:27;94444.81;;;13.90;100.00
24610;BME280;12758;47.890;11.694;2023-05-03T12:07:54;94442.41;;;13.68;100.00
24610;BME280;12758;47.890;11.694;2023-05-03T12:10:22;94443.09;;;13.65;100.00
24610;BME280;12758;47.890;11.694;2023-05-03T12:12:56;94449.06;;;13.79;100.00
24610;BME280;12758;47.890;11.694;2023-05-03T12:15:26;94447.66;;;13.73;100.00
24610;BME280;12758;47.890;11.694;2023-05-03T12:17:54;94442.00;;;13.57;100.00
24610;BME280;12758;47.890;11.694;2023-05-03T12:20:22;94444.38;;;14.01;100.00
24610;BME280;12758;47.890;11.694;2023-05-03T12:22:49;94448.94;;;13.75;100.00
24610;BME280;12758;47.890;11.694;2023-05-03T12:25:15;94439.88;;;13.63;100.00
24610;BME280;12758;47.890;11.694;2023-05-03T12:27:42;94438.47;;;13.57;100.00
24610;BME280;12758;47.890;11.694;2023-05-03T12:30:08;94447.41;;;13.66;100.00
24610;BME280;12758;47.890;11.694;2023-05-03T12:32:34;94434.19;;;14.10;100.00
24610;BME280;12758;47.890;11.694;2023-05-03T12:35:00;94429.34;;;14.28;100.00
24610;BME280;12758;47.890;11.694;2023-05-03T12:37:26;94429.94;;;14.33;100.00
24610;BME280;12758;47.890;11.694;2023-05-03T12:39:52;94426.00;;;14.22;100.00
24610;BME280;12758;47.890;11.694;2023-05-03T12:42:18;94418.94;;;14.09;100.00